Tunnerville, South Dakota
Current Conditions -  °F | °C
As of 9:14 AM on Wednesday 22 Oct 2014 (Local Time) from KCNB Reporting Station
Overcast Overcast  
Wind Chill: 14°   Ceiling: 9000
Heat Index: 14°   Visibility: 10mi
Dew Point:   Wind: 16mph
Humidity: 62%   Direction: 160°SSE
Pressure: 29.96"   Gusts: 22mph
Location:  44.7895°N, 96.7201°W
Report Text: KCNB 221414Z AUTO 16014G19KT 10SM OVC090 14/07 A2996 RMK AO2 T01380067
Loading
Personal Weather Stations






























Interactive Weather Map
Tropical Storm Tracking
New forecast layout! Learn more

10-Day Weather Forecast

Advertisements
Track Severe Weather on mobile